Eendracht — PDVN — position and weather

sailwx.info

Track history (hours):
 
Tides and Currents Weather Stations Pressure Air Temp Water Temp Dewpoint Dewpoint Depression Visibility Wind Speed Wind Dir Waves Ship Positions

Eendracht (Netherlands)

Last reported at 2015-Aug-30 19:31 UTC. Time now 2015-Aug-30 20:06 UTC.
Position N 51°27' E 003°36'.

Length 59 m; beam 12 m; draft 5 m.

MMSI: 244543000.

Date/timePositionNaut miles runAvg speedWind from/ knotsBaromVisibWave heightAir tempDewpointWater temp
2015-Aug-30 19:31N 51°27' E 003°36'0 0.0
2015-Aug-30 18:31N 51°27' E 003°36'0 0.0
2015-Aug-30 17:31N 51°27' E 003°36'0 0.0
2015-Aug-30 16:31N 51°27' E 003°36'0 0.1
2015-Aug-30 15:33N 51°27' E 003°36'3 3.1
2015-Aug-30 14:33N 51°26' E 003°41'5 4.5
2015-Aug-30 13:33N 51°27' E 003°33'5 5.2
2015-Aug-30 12:33N 51°30' E 003°27'5 4.7
2015-Aug-30 11:33N 51°35' E 003°26'1 0.6
2015-Aug-30 10:33N 51°34' E 003°25'3 3.3
2015-Aug-30 09:33N 51°31' E 003°26'4 4.1
2015-Aug-30 08:33N 51°28' E 003°31'4 3.9
2015-Aug-30 07:33N 51°25' E 003°34'2 2.2
2015-Aug-30 06:33N 51°27' E 003°36'0 0.1
2015-Aug-30 05:33N 51°27' E 003°36'0 0.0
2015-Aug-30 04:33N 51°27' E 003°36'0 0.0
2015-Aug-30 03:33N 51°27' E 003°36'0 0.0
2015-Aug-30 02:33N 51°27' E 003°36'0 0.0
2015-Aug-30 01:33N 51°27' E 003°36'0 0.0
2015-Aug-30 00:33N 51°27' E 003°36'0 0.0
2015-Aug-29 23:33N 51°27' E 003°36'0 0.0
2015-Aug-29 22:33N 51°27' E 003°36'0 0.0
2015-Aug-29 21:33N 51°27' E 003°36'0 0.0
2015-Aug-29 20:33N 51°27' E 003°36'0 0.0
2015-Aug-29 19:33N 51°27' E 003°36'0 0.0
2015-Aug-29 18:33N 51°27' E 003°36'0 0.3
2015-Aug-29 17:33N 51°26' E 003°36'3 2.7
2015-Aug-29 16:28N 51°24' E 003°34'0 0.0
2015-Aug-29 15:31N 51°24' E 003°34'0 0.0
2015-Aug-29 14:31N 51°24' E 003°34'3 2.8
2015-Aug-29 13:33N 51°25' E 003°30'3 2.5
2015-Aug-29 12:34N 51°27' E 003°27'1 1.5
2015-Aug-29 11:33N 51°26' E 003°29'4 3.6
2015-Aug-29 10:33N 51°24' E 003°34'0 0.0
2015-Aug-29 09:32N 51°24' E 003°34'0 0.0
2015-Aug-29 08:32N 51°24' E 003°34'0 0.0
2015-Aug-29 07:32N 51°24' E 003°34'3 3.0
2015-Aug-29 06:33N 51°27' E 003°36'0 0.2
2015-Aug-29 05:32N 51°27' E 003°36'0 0.0
2015-Aug-29 04:32N 51°27' E 003°36'0 0.0
2015-Aug-29 03:29N 51°27' E 003°36'0 0.0
2015-Aug-29 02:32N 51°27' E 003°36'0 0.0
2015-Aug-29 01:32N 51°27' E 003°36'0 0.0
2015-Aug-29 00:32N 51°27' E 003°36'0 0.0
2015-Aug-28 23:32N 51°27' E 003°36'0 0.0
2015-Aug-28 22:32N 51°27' E 003°36'0 0.0
2015-Aug-28 21:32N 51°27' E 003°36'0 0.0
2015-Aug-28 20:32N 51°27' E 003°36'0 0.0
2015-Aug-28 19:32N 51°27' E 003°36'0 0.0
2015-Aug-28 18:32N 51°27' E 003°36'0 0.0
2015-Aug-28 17:32N 51°27' E 003°36'0 0.0
2015-Aug-28 16:32N 51°27' E 003°36'0 0.0
2015-Aug-28 15:32N 51°27' E 003°36'0 0.0
2015-Aug-28 14:32N 51°27' E 003°36'0 0.0
2015-Aug-28 13:32N 51°27' E 003°36'0 0.0
2015-Aug-28 12:31N 51°27' E 003°36'0 0.0
2015-Aug-28 11:33N 51°27' E 003°36'1 1.2
2015-Aug-28 10:33N 51°26' E 003°34'4 4.0
2015-Aug-28 09:33N 51°29' E 003°30'6 6.0
2015-Aug-28 08:33N 51°34' E 003°24'7 6.5
2015-Aug-28 07:27N 51°40' E 003°17'5 5.7
2015-Aug-28 06:33N 51°40' E 003°09'53 3.3
2015-Aug-27 14:33N 52°19' E 002°11'7 6.6
2015-Aug-27 13:33N 52°24' E 002°04'5 4.8
2015-Aug-27 12:33N 52°27' E 001°58'3 2.7
2015-Aug-27 11:33N 52°29' E 001°55'3 2.7
2015-Aug-27 10:33N 52°30' E 001°51'2 2.4
2015-Aug-27 09:33N 52°33' E 001°49'5 4.6
2015-Aug-27 08:33N 52°36' E 001°44'0 0.4
2015-Aug-27 07:33N 52°36' E 001°44'0 0.0
2015-Aug-27 06:33N 52°36' E 001°44'0 0.0
2015-Aug-27 05:33N 52°36' E 001°44'0 0.0
2015-Aug-27 04:33N 52°36' E 001°44'0 0.0
2015-Aug-27 03:33N 52°36' E 001°44'0 0.0
2015-Aug-27 02:33N 52°36' E 001°44'0 0.0
2015-Aug-27 01:33N 52°36' E 001°44'0 0.0
2015-Aug-27 00:33N 52°36' E 001°44'0 0.0
2015-Aug-26 23:33N 52°36' E 001°44'0 0.0
2015-Aug-26 22:32N 52°36' E 001°44'0 0.0
2015-Aug-26 21:32N 52°36' E 001°44'0 0.0
2015-Aug-26 20:32N 52°36' E 001°44'0 0.0
2015-Aug-26 19:32N 52°36' E 001°44'0 0.0
2015-Aug-26 18:32N 52°36' E 001°44'0 0.0
2015-Aug-26 17:32N 52°36' E 001°44'0 0.0
2015-Aug-26 16:32N 52°36' E 001°44'0 0.0
2015-Aug-26 15:32N 52°36' E 001°44'0 0.0
2015-Aug-26 14:32N 52°36' E 001°44'0 0.0
2015-Aug-26 13:32N 52°36' E 001°44'0 0.0
2015-Aug-26 12:32N 52°36' E 001°44'0 0.0
2015-Aug-26 11:32N 52°36' E 001°44'0 0.0
2015-Aug-26 10:32N 52°36' E 001°44'0 0.0
2015-Aug-26 09:32N 52°36' E 001°44'0 0.0
2015-Aug-26 08:32N 52°36' E 001°44'0 0.5
2015-Aug-26 07:33N 52°36' E 001°44'2 2.3
2015-Aug-26 06:33N 52°34' E 001°46'0 0.0
2015-Aug-26 05:32N 52°34' E 001°46'0 0.1
2015-Aug-26 04:32N 52°34' E 001°46'0 0.0
2015-Aug-26 03:32N 52°34' E 001°46'0 0.0
2015-Aug-26 02:32N 52°34' E 001°46'0 0.1
2015-Aug-26 01:32N 52°34' E 001°46'0 0.0
2015-Aug-26 00:32N 52°34' E 001°46'0 0.0
2015-Aug-25 23:31N 52°34' E 001°46'0 0.0
2015-Aug-25 22:31N 52°34' E 001°46'0 0.0
2015-Aug-25 21:31N 52°34' E 001°46'0 0.0
2015-Aug-25 20:31N 52°34' E 001°46'3 3.0
2015-Aug-25 19:33N 52°32' E 001°50'7 6.9
2015-Aug-25 18:33N 52°26' E 001°55'5 5.1
2015-Aug-25 17:33N 52°24' E 002°02'56 2.5
2015-Aug-24 19:23N 52°22' E 003°33'2 2.9
2015-Aug-24 18:32N 52°21' E 003°37'4 4.2
2015-Aug-24 17:33N 52°22' E 003°43'4 4.1
2015-Aug-24 16:34N 52°24' E 003°49'5 4.7
2015-Aug-24 15:33N 52°24' E 003°57'4 4.3
2015-Aug-24 14:33N 52°25' E 004°04'5 4.6
2015-Aug-24 13:33N 52°27' E 004°11'7 6.6
2015-Aug-24 12:33N 52°27' E 004°22'7 6.5
2015-Aug-24 11:33N 52°28' E 004°32'2 1.6
2015-Aug-24 10:28N 52°28' E 004°35'0 0.0
2015-Aug-24 09:33N 52°28' E 004°35'0 0.0
2015-Aug-24 08:31N 52°28' E 004°35'0 0.0
2015-Aug-24 07:31N 52°28' E 004°35'0 0.0
2015-Aug-24 06:31N 52°28' E 004°35'0 0.0
2015-Aug-24 05:31N 52°28' E 004°35'0 0.0
2015-Aug-24 03:31N 52°28' E 004°35'0 0.0
2015-Aug-24 02:31N 52°28' E 004°35'0 0.0
2015-Aug-24 01:31N 52°28' E 004°35'0 0.0
2015-Aug-24 00:31N 52°28' E 004°35'0 0.0
2015-Aug-23 23:31N 52°28' E 004°35'0 0.0
2015-Aug-23 22:31N 52°28' E 004°35'0 0.0
2015-Aug-23 21:31N 52°28' E 004°35'0 0.0
2015-Aug-23 20:28N 52°28' E 004°35'0 0.0
2015-Aug-23 19:31N 52°28' E 004°35'0 0.0
2015-Aug-23 18:31N 52°28' E 004°35'0 0.0
2015-Aug-23 17:31N 52°28' E 004°35'0 0.0
2015-Aug-23 16:31N 52°28' E 004°35'0 0.0
2015-Aug-23 15:33N 52°28' E 004°35'0 0.0
2015-Aug-23 14:31N 52°28' E 004°35'0 0.0
2015-Aug-23 13:33N 52°28' E 004°35'1 1.4
2015-Aug-23 12:33N 52°28' E 004°37'7 6.6
2015-Aug-23 11:34N 52°26' E 004°47'5 4.5
2015-Aug-23 10:34N 52°23' E 004°54'1 0.7
2015-Aug-23 09:32N 52°23' E 004°54'0 0.0
2015-Aug-23 08:32N 52°23' E 004°54'0 0.0
2015-Aug-23 07:32N 52°23' E 004°55'0 0.0
2015-Aug-23 06:32N 52°23' E 004°55'0 0.0
2015-Aug-23 05:32N 52°23' E 004°54'0 0.0
2015-Aug-23 04:32N 52°23' E 004°54'0 0.0
2015-Aug-23 03:32N 52°23' E 004°54'0 0.0
2015-Aug-23 02:32N 52°23' E 004°55'0 0.0
2015-Aug-23 01:32N 52°23' E 004°54'0 0.0
2015-Aug-23 00:32N 52°23' E 004°55'0 0.0
2015-Aug-22 23:32N 52°23' E 004°54'0 0.0
2015-Aug-22 22:32N 52°23' E 004°54'0 0.0
2015-Aug-22 21:32N 52°23' E 004°54'0 0.0
2015-Aug-22 20:32N 52°23' E 004°55'0 0.0
2015-Aug-22 19:33N 52°23' E 004°54'1 0.8
2015-Aug-22 18:33N 52°23' E 004°56'1 0.8
2015-Aug-22 17:32N 52°23' E 004°55'0 0.0
2015-Aug-22 16:32N 52°23' E 004°55'0 0.0
2015-Aug-22 15:29N 52°23' E 004°54'0 0.1
2015-Aug-22 14:33N 52°23' E 004°54'1 1.3
2015-Aug-22 13:34N 52°24' E 004°53'2 1.6
2015-Aug-22 12:34N 52°23' E 004°55'0 0.2
2015-Aug-22 11:34N 52°23' E 004°55'1 0.5
2015-Aug-22 10:31N 52°23' E 004°55'0 0.0
2015-Aug-22 09:31N 52°23' E 004°54'0 0.0
2015-Aug-22 08:31N 52°23' E 004°54'0 0.0
2015-Aug-22 07:31N 52°23' E 004°54'0 0.0
2015-Aug-22 06:31N 52°23' E 004°54'0 0.0
2015-Aug-22 05:31N 52°23' E 004°54'0 0.0
2015-Aug-22 04:31N 52°23' E 004°54'0 0.0
2015-Aug-22 03:31N 52°23' E 004°55'0 0.0
2015-Aug-22 02:31N 52°23' E 004°54'0 0.0
2015-Aug-22 01:31N 52°23' E 004°54'0 0.0
2015-Aug-22 00:31N 52°23' E 004°54'0 0.0
2015-Aug-21 23:34N 52°23' E 004°54'0 0.0
2015-Aug-21 22:33N 52°23' E 004°54'0 0.0
2015-Aug-21 21:30N 52°23' E 004°55'0 0.1
2015-Aug-21 19:33N 52°23' E 004°54'1 0.5
2015-Aug-21 18:33N 52°23' E 004°55'0 0.1
2015-Aug-21 17:33N 52°23' E 004°55'0 0.4
2015-Aug-21 16:31N 52°23' E 004°55'0 0.0
2015-Aug-21 15:31N 52°23' E 004°55'0 0.0
2015-Aug-21 14:31N 52°23' E 004°55'1 0.8
2015-Aug-21 13:34N 52°23' E 004°54'1 0.8
2015-Aug-21 12:33N 52°23' E 004°55'1 0.7
2015-Aug-21 11:33N 52°23' E 004°56'1 0.8
2015-Aug-21 10:33N 52°23' E 004°55'0 0.0
2015-Aug-21 09:33N 52°23' E 004°55'0 0.0
2015-Aug-21 08:33N 52°23' E 004°55'0 0.0
2015-Aug-21 07:33N 52°23' E 004°55'0 0.0
2015-Aug-21 06:33N 52°23' E 004°55'0 0.0
2015-Aug-21 05:33N 52°23' E 004°55'0 0.0
2015-Aug-21 04:33N 52°23' E 004°55'0 0.0
2015-Aug-21 03:33N 52°23' E 004°55'0 0.0
2015-Aug-21 02:33N 52°23' E 004°55'0 0.0
2015-Aug-21 01:33N 52°23' E 004°55'0 0.0
2015-Aug-21 00:33N 52°23' E 004°55'0 0.2
2015-Aug-20 23:33N 52°23' E 004°54'2 2.3
2015-Aug-20 22:33N 52°25' E 004°52'2 1.8
2015-Aug-20 21:34N 52°23' E 004°54'1 1.5
2015-Aug-20 20:33N 52°23' E 004°56'1 0.7
2015-Aug-20 19:34N 52°23' E 004°55'  
Track history (hours):
 
Tides and Currents Weather Stations Pressure Air Temp Water Temp Dewpoint Dewpoint Depression Visibility Wind Speed Wind Dir Waves Ship Positions

Eendracht (Netherlands)

Last reported at 2015-Aug-30 19:31 UTC. Time now 2015-Aug-30 20:06 UTC.
Position N 51°27' E 003°36'.

Length 59 m; beam 12 m; draft 5 m.

MMSI: 244543000.

Date/timePositionNaut miles runAvg speedWind from/ knotsBaromVisibWave heightAir tempDewpointWater temp
2015-Aug-30 19:31N 51°27' E 003°36'0 0.0
2015-Aug-30 18:31N 51°27' E 003°36'0 0.0
2015-Aug-30 17:31N 51°27' E 003°36'0 0.0
2015-Aug-30 16:31N 51°27' E 003°36'0 0.1
2015-Aug-30 15:33N 51°27' E 003°36'3 3.1
2015-Aug-30 14:33N 51°26' E 003°41'5 4.5
2015-Aug-30 13:33N 51°27' E 003°33'5 5.2
2015-Aug-30 12:33N 51°30' E 003°27'5 4.7
2015-Aug-30 11:33N 51°35' E 003°26'1 0.6
2015-Aug-30 10:33N 51°34' E 003°25'3 3.3
2015-Aug-30 09:33N 51°31' E 003°26'4 4.1
2015-Aug-30 08:33N 51°28' E 003°31'4 3.9
2015-Aug-30 07:33N 51°25' E 003°34'2 2.2
2015-Aug-30 06:33N 51°27' E 003°36'0 0.1
2015-Aug-30 05:33N 51°27' E 003°36'0 0.0
2015-Aug-30 04:33N 51°27' E 003°36'0 0.0
2015-Aug-30 03:33N 51°27' E 003°36'0 0.0
2015-Aug-30 02:33N 51°27' E 003°36'0 0.0
2015-Aug-30 01:33N 51°27' E 003°36'0 0.0
2015-Aug-30 00:33N 51°27' E 003°36'0 0.0
2015-Aug-29 23:33N 51°27' E 003°36'0 0.0
2015-Aug-29 22:33N 51°27' E 003°36'0 0.0
2015-Aug-29 21:33N 51°27' E 003°36'0 0.0
2015-Aug-29 20:33N 51°27' E 003°36'0 0.0
2015-Aug-29 19:33N 51°27' E 003°36'0 0.0
2015-Aug-29 18:33N 51°27' E 003°36'0 0.3
2015-Aug-29 17:33N 51°26' E 003°36'3 2.7
2015-Aug-29 16:28N 51°24' E 003°34'0 0.0
2015-Aug-29 15:31N 51°24' E 003°34'0 0.0
2015-Aug-29 14:31N 51°24' E 003°34'3 2.8
2015-Aug-29 13:33N 51°25' E 003°30'3 2.5
2015-Aug-29 12:34N 51°27' E 003°27'1 1.5
2015-Aug-29 11:33N 51°26' E 003°29'4 3.6
2015-Aug-29 10:33N 51°24' E 003°34'0 0.0
2015-Aug-29 09:32N 51°24' E 003°34'0 0.0
2015-Aug-29 08:32N 51°24' E 003°34'0 0.0
2015-Aug-29 07:32N 51°24' E 003°34'3 3.0
2015-Aug-29 06:33N 51°27' E 003°36'0 0.2
2015-Aug-29 05:32N 51°27' E 003°36'0 0.0
2015-Aug-29 04:32N 51°27' E 003°36'0 0.0
2015-Aug-29 03:29N 51°27' E 003°36'0 0.0
2015-Aug-29 02:32N 51°27' E 003°36'0 0.0
2015-Aug-29 01:32N 51°27' E 003°36'0 0.0
2015-Aug-29 00:32N 51°27' E 003°36'0 0.0
2015-Aug-28 23:32N 51°27' E 003°36'0 0.0
2015-Aug-28 22:32N 51°27' E 003°36'0 0.0
2015-Aug-28 21:32N 51°27' E 003°36'0 0.0
2015-Aug-28 20:32N 51°27' E 003°36'0 0.0
2015-Aug-28 19:32N 51°27' E 003°36'0 0.0
2015-Aug-28 18:32N 51°27' E 003°36'0 0.0
2015-Aug-28 17:32N 51°27' E 003°36'0 0.0
2015-Aug-28 16:32N 51°27' E 003°36'0 0.0
2015-Aug-28 15:32N 51°27' E 003°36'0 0.0
2015-Aug-28 14:32N 51°27' E 003°36'0 0.0
2015-Aug-28 13:32N 51°27' E 003°36'0 0.0
2015-Aug-28 12:31N 51°27' E 003°36'0 0.0
2015-Aug-28 11:33N 51°27' E 003°36'1 1.2
2015-Aug-28 10:33N 51°26' E 003°34'4 4.0
2015-Aug-28 09:33N 51°29' E 003°30'6 6.0
2015-Aug-28 08:33N 51°34' E 003°24'7 6.5
2015-Aug-28 07:27N 51°40' E 003°17'5 5.7
2015-Aug-28 06:33N 51°40' E 003°09'53 3.3
2015-Aug-27 14:33N 52°19' E 002°11'7 6.6
2015-Aug-27 13:33N 52°24' E 002°04'5 4.8
2015-Aug-27 12:33N 52°27' E 001°58'3 2.7
2015-Aug-27 11:33N 52°29' E 001°55'3 2.7
2015-Aug-27 10:33N 52°30' E 001°51'2 2.4
2015-Aug-27 09:33N 52°33' E 001°49'5 4.6
2015-Aug-27 08:33N 52°36' E 001°44'0 0.4
2015-Aug-27 07:33N 52°36' E 001°44'0 0.0
2015-Aug-27 06:33N 52°36' E 001°44'0 0.0
2015-Aug-27 05:33N 52°36' E 001°44'0 0.0
2015-Aug-27 04:33N 52°36' E 001°44'0 0.0
2015-Aug-27 03:33N 52°36' E 001°44'0 0.0
2015-Aug-27 02:33N 52°36' E 001°44'0 0.0
2015-Aug-27 01:33N 52°36' E 001°44'0 0.0
2015-Aug-27 00:33N 52°36' E 001°44'0 0.0
2015-Aug-26 23:33N 52°36' E 001°44'0 0.0
2015-Aug-26 22:32N 52°36' E 001°44'0 0.0
2015-Aug-26 21:32N 52°36' E 001°44'0 0.0
2015-Aug-26 20:32N 52°36' E 001°44'0 0.0
2015-Aug-26 19:32N 52°36' E 001°44'0 0.0
2015-Aug-26 18:32N 52°36' E 001°44'0 0.0
2015-Aug-26 17:32N 52°36' E 001°44'0 0.0
2015-Aug-26 16:32N 52°36' E 001°44'0 0.0
2015-Aug-26 15:32N 52°36' E 001°44'0 0.0
2015-Aug-26 14:32N 52°36' E 001°44'0 0.0
2015-Aug-26 13:32N 52°36' E 001°44'0 0.0
2015-Aug-26 12:32N 52°36' E 001°44'0 0.0
2015-Aug-26 11:32N 52°36' E 001°44'0 0.0
2015-Aug-26 10:32N 52°36' E 001°44'0 0.0
2015-Aug-26 09:32N 52°36' E 001°44'0 0.0
2015-Aug-26 08:32N 52°36' E 001°44'0 0.5
2015-Aug-26 07:33N 52°36' E 001°44'2 2.3
2015-Aug-26 06:33N 52°34' E 001°46'0 0.0
2015-Aug-26 05:32N 52°34' E 001°46'0 0.1
2015-Aug-26 04:32N 52°34' E 001°46'0 0.0
2015-Aug-26 03:32N 52°34' E 001°46'0 0.0
2015-Aug-26 02:32N 52°34' E 001°46'0 0.1
2015-Aug-26 01:32N 52°34' E 001°46'0 0.0
2015-Aug-26 00:32N 52°34' E 001°46'0 0.0
2015-Aug-25 23:31N 52°34' E 001°46'0 0.0
2015-Aug-25 22:31N 52°34' E 001°46'0 0.0
2015-Aug-25 21:31N 52°34' E 001°46'0 0.0
2015-Aug-25 20:31N 52°34' E 001°46'3 3.0
2015-Aug-25 19:33N 52°32' E 001°50'7 6.9
2015-Aug-25 18:33N 52°26' E 001°55'5 5.1
2015-Aug-25 17:33N 52°24' E 002°02'56 2.5
2015-Aug-24 19:23N 52°22' E 003°33'2 2.9
2015-Aug-24 18:32N 52°21' E 003°37'4 4.2
2015-Aug-24 17:33N 52°22' E 003°43'4 4.1
2015-Aug-24 16:34N 52°24' E 003°49'5 4.7
2015-Aug-24 15:33N 52°24' E 003°57'4 4.3
2015-Aug-24 14:33N 52°25' E 004°04'5 4.6
2015-Aug-24 13:33N 52°27' E 004°11'7 6.6
2015-Aug-24 12:33N 52°27' E 004°22'7 6.5
2015-Aug-24 11:33N 52°28' E 004°32'2 1.6
2015-Aug-24 10:28N 52°28' E 004°35'0 0.0
2015-Aug-24 09:33N 52°28' E 004°35'0 0.0
2015-Aug-24 08:31N 52°28' E 004°35'0 0.0
2015-Aug-24 07:31N 52°28' E 004°35'0 0.0
2015-Aug-24 06:31N 52°28' E 004°35'0 0.0
2015-Aug-24 05:31N 52°28' E 004°35'0 0.0
2015-Aug-24 03:31N 52°28' E 004°35'0 0.0
2015-Aug-24 02:31N 52°28' E 004°35'0 0.0
2015-Aug-24 01:31N 52°28' E 004°35'0 0.0
2015-Aug-24 00:31N 52°28' E 004°35'0 0.0
2015-Aug-23 23:31N 52°28' E 004°35'0 0.0
2015-Aug-23 22:31N 52°28' E 004°35'0 0.0
2015-Aug-23 21:31N 52°28' E 004°35'0 0.0
2015-Aug-23 20:28N 52°28' E 004°35'0 0.0
2015-Aug-23 19:31N 52°28' E 004°35'0 0.0
2015-Aug-23 18:31N 52°28' E 004°35'0 0.0
2015-Aug-23 17:31N 52°28' E 004°35'0 0.0
2015-Aug-23 16:31N 52°28' E 004°35'0 0.0
2015-Aug-23 15:33N 52°28' E 004°35'0 0.0
2015-Aug-23 14:31N 52°28' E 004°35'0 0.0
2015-Aug-23 13:33N 52°28' E 004°35'1 1.4
2015-Aug-23 12:33N 52°28' E 004°37'7 6.6
2015-Aug-23 11:34N 52°26' E 004°47'5 4.5
2015-Aug-23 10:34N 52°23' E 004°54'1 0.7
2015-Aug-23 09:32N 52°23' E 004°54'0 0.0
2015-Aug-23 08:32N 52°23' E 004°54'0 0.0
2015-Aug-23 07:32N 52°23' E 004°55'0 0.0
2015-Aug-23 06:32N 52°23' E 004°55'0 0.0
2015-Aug-23 05:32N 52°23' E 004°54'0 0.0
2015-Aug-23 04:32N 52°23' E 004°54'0 0.0
2015-Aug-23 03:32N 52°23' E 004°54'0 0.0
2015-Aug-23 02:32N 52°23' E 004°55'0 0.0
2015-Aug-23 01:32N 52°23' E 004°54'0 0.0
2015-Aug-23 00:32N 52°23' E 004°55'0 0.0
2015-Aug-22 23:32N 52°23' E 004°54'0 0.0
2015-Aug-22 22:32N 52°23' E 004°54'0 0.0
2015-Aug-22 21:32N 52°23' E 004°54'0 0.0
2015-Aug-22 20:32N 52°23' E 004°55'0 0.0
2015-Aug-22 19:33N 52°23' E 004°54'1 0.8
2015-Aug-22 18:33N 52°23' E 004°56'1 0.8
2015-Aug-22 17:32N 52°23' E 004°55'0 0.0
2015-Aug-22 16:32N 52°23' E 004°55'0 0.0
2015-Aug-22 15:29N 52°23' E 004°54'0 0.1
2015-Aug-22 14:33N 52°23' E 004°54'1 1.3
2015-Aug-22 13:34N 52°24' E 004°53'2 1.6
2015-Aug-22 12:34N 52°23' E 004°55'0 0.2
2015-Aug-22 11:34N 52°23' E 004°55'1 0.5
2015-Aug-22 10:31N 52°23' E 004°55'0 0.0
2015-Aug-22 09:31N 52°23' E 004°54'0 0.0
2015-Aug-22 08:31N 52°23' E 004°54'0 0.0
2015-Aug-22 07:31N 52°23' E 004°54'0 0.0
2015-Aug-22 06:31N 52°23' E 004°54'0 0.0
2015-Aug-22 05:31N 52°23' E 004°54'0 0.0
2015-Aug-22 04:31N 52°23' E 004°54'0 0.0
2015-Aug-22 03:31N 52°23' E 004°55'0 0.0
2015-Aug-22 02:31N 52°23' E 004°54'0 0.0
2015-Aug-22 01:31N 52°23' E 004°54'0 0.0
2015-Aug-22 00:31N 52°23' E 004°54'0 0.0
2015-Aug-21 23:34N 52°23' E 004°54'0 0.0
2015-Aug-21 22:33N 52°23' E 004°54'0 0.0
2015-Aug-21 21:30N 52°23' E 004°55'0 0.1
2015-Aug-21 19:33N 52°23' E 004°54'1 0.5
2015-Aug-21 18:33N 52°23' E 004°55'0 0.1
2015-Aug-21 17:33N 52°23' E 004°55'0 0.4
2015-Aug-21 16:31N 52°23' E 004°55'0 0.0
2015-Aug-21 15:31N 52°23' E 004°55'0 0.0
2015-Aug-21 14:31N 52°23' E 004°55'1 0.8
2015-Aug-21 13:34N 52°23' E 004°54'1 0.8
2015-Aug-21 12:33N 52°23' E 004°55'1 0.7
2015-Aug-21 11:33N 52°23' E 004°56'1 0.8
2015-Aug-21 10:33N 52°23' E 004°55'0 0.0
2015-Aug-21 09:33N 52°23' E 004°55'0 0.0
2015-Aug-21 08:33N 52°23' E 004°55'0 0.0
2015-Aug-21 07:33N 52°23' E 004°55'0 0.0
2015-Aug-21 06:33N 52°23' E 004°55'0 0.0
2015-Aug-21 05:33N 52°23' E 004°55'0 0.0
2015-Aug-21 04:33N 52°23' E 004°55'0 0.0
2015-Aug-21 03:33N 52°23' E 004°55'0 0.0
2015-Aug-21 02:33N 52°23' E 004°55'0 0.0
2015-Aug-21 01:33N 52°23' E 004°55'0 0.0
2015-Aug-21 00:33N 52°23' E 004°55'0 0.2
2015-Aug-20 23:33N 52°23' E 004°54'2 2.3
2015-Aug-20 22:33N 52°25' E 004°52'2 1.8
2015-Aug-20 21:34N 52°23' E 004°54'1 1.5
2015-Aug-20 20:33N 52°23' E 004°56'1 0.7
2015-Aug-20 19:34N 52°23' E 004°55'  

Dump ship's entire track history